createdAt,value
2019-03-04T00:01:04.748Z,119.20
2019-03-04T00:03:34.947Z,109.57
2019-03-04T00:06:05.014Z,117.85
2019-03-04T00:08:36.025Z,104.78
2019-03-04T00:11:06.130Z,110.63
2019-03-04T00:13:36.189Z,109.42
2019-03-04T00:16:06.202Z,104.15
2019-03-04T00:18:36.191Z,105.87
2019-03-04T00:21:06.386Z,115.62
2019-03-04T00:23:36.460Z,110.88
2019-03-04T00:26:06.612Z,116.33
2019-03-04T00:28:36.548Z,112.00
2019-03-04T00:31:06.505Z,104.97
2019-03-04T00:33:36.520Z,117.57
2019-03-04T00:36:06.517Z,107.32
2019-03-04T00:38:36.556Z,106.37
2019-03-04T00:41:06.555Z,110.17
2019-03-04T00:43:36.645Z,108.30
2019-03-04T00:46:06.820Z,108.92
2019-03-04T00:48:36.735Z,105.85
2019-03-04T00:51:06.856Z,110.45
2019-03-04T00:53:36.879Z,114.42
2019-03-04T00:56:06.964Z,116.50
2019-03-04T00:58:36.985Z,106.40
2019-03-04T01:01:07.061Z,107.47
2019-03-04T01:03:37.060Z,102.20
2019-03-04T01:06:07.135Z,116.15
2019-03-04T01:08:37.117Z,127.10
2019-03-04T01:11:08.232Z,129.23
2019-03-04T01:13:39.461Z,128.47
2019-03-04T01:16:09.481Z,136.88
2019-03-04T01:18:39.471Z,136.72
2019-03-04T01:21:09.501Z,129.80
2019-03-04T01:23:39.587Z,136.80
2019-03-04T01:26:09.659Z,127.95
2019-03-04T01:28:39.706Z,141.03
2019-03-04T01:31:09.657Z,123.72
2019-03-04T01:33:39.689Z,130.67
2019-03-04T01:36:09.770Z,128.50
2019-03-04T01:38:39.849Z,125.50
2019-03-04T01:41:11.017Z,118.35
2019-03-04T01:43:41.192Z,109.50
2019-03-04T01:46:11.214Z,113.03
2019-03-04T01:48:41.193Z,115.50
2019-03-04T01:51:11.314Z,129.27
2019-03-04T01:53:41.248Z,125.35
2019-03-04T01:56:11.346Z,136.10
2019-03-04T01:58:41.374Z,142.37
2019-03-04T02:01:11.376Z,143.32
2019-03-04T02:03:41.452Z,140.32
2019-03-04T02:06:11.497Z,141.07
2019-03-04T02:08:41.421Z,120.37
2019-03-04T02:11:11.525Z,121.80
2019-03-04T02:13:42.675Z,144.87
2019-03-04T02:16:12.665Z,133.70
2019-03-04T02:18:42.858Z,111.88
2019-03-04T02:21:12.924Z,128.95
2019-03-04T02:23:42.911Z,126.25
2019-03-04T02:26:15.373Z,119.95
2019-03-04T02:28:45.504Z,117.45
2019-03-04T02:31:15.661Z,120.77
2019-03-04T02:33:45.544Z,128.47
2019-03-04T02:36:15.466Z,133.95
2019-03-04T02:38:45.504Z,129.55
2019-03-04T02:41:15.521Z,111.08
2019-03-04T02:43:45.620Z,116.85
2019-03-04T02:46:15.708Z,116.20
2019-03-04T02:48:45.716Z,146.43
2019-03-04T02:51:15.817Z,126.58
2019-03-04T02:53:46.886Z,129.97
2019-03-04T02:56:16.839Z,135.00
2019-03-04T02:58:46.855Z,116.37
2019-03-04T03:01:17.160Z,124.80
2019-03-04T03:03:47.169Z,166.07
2019-03-04T03:06:17.191Z,101.38
2019-03-04T03:08:47.247Z,142.70
2019-03-04T03:11:17.368Z,112.08
2019-03-04T03:13:47.532Z,122.05
2019-03-04T03:16:17.625Z,121.47
2019-03-04T03:18:47.744Z,131.12
2019-03-04T03:21:17.744Z,123.82
2019-03-04T03:23:47.798Z,130.85
2019-03-04T03:26:17.884Z,140.52
2019-03-04T03:28:47.943Z,147.00
2019-03-04T03:31:17.902Z,175.22
2019-03-04T03:33:48.000Z,156.43
2019-03-04T03:36:18.051Z,123.40
2019-03-04T03:38:48.099Z,123.60
2019-03-04T03:41:18.092Z,157.93
2019-03-04T03:43:48.088Z,111.97
2019-03-04T03:46:18.177Z,123.58
2019-03-04T03:48:48.317Z,128.10
2019-03-04T03:51:18.456Z,162.60
2019-03-04T03:53:48.533Z,135.22
2019-03-04T03:56:18.622Z,170.28
2019-03-04T03:58:48.679Z,143.17
2019-03-04T04:01:18.838Z,121.65
2019-03-04T04:03:48.859Z,137.25
2019-03-04T04:06:18.789Z,119.82
2019-03-04T04:08:48.866Z,145.17
2019-03-04T04:11:18.934Z,131.05
2019-03-04T04:13:48.998Z,135.97
2019-03-04T04:16:19.003Z,123.35
2019-03-04T04:18:49.068Z,125.87
2019-03-04T04:21:19.138Z,126.80
2019-03-04T04:23:49.227Z,125.90
2019-03-04T04:26:21.724Z,139.90
2019-03-04T04:28:53.427Z,149.97
2019-03-04T04:31:26.649Z,131.93
2019-03-04T04:33:56.765Z,146.98
2019-03-04T04:36:27.858Z,126.82
2019-03-04T04:38:57.910Z,177.12
2019-03-04T04:41:27.973Z,172.90
2019-03-04T04:43:58.152Z,171.90
2019-03-04T04:46:47.813Z,162.85
2019-03-04T04:49:17.906Z,153.50
2019-03-04T04:51:47.993Z,152.95
2019-03-04T04:54:18.075Z,147.02
2019-03-04T04:56:48.162Z,150.07
2019-03-04T04:59:18.099Z,155.22
2019-03-04T05:01:48.086Z,158.93
2019-03-04T05:04:18.165Z,139.50
2019-03-04T05:06:48.259Z,153.15
2019-03-04T05:09:18.294Z,152.53
2019-03-04T05:11:48.366Z,144.70
2019-03-04T05:14:18.400Z,142.53
2019-03-04T05:16:48.585Z,147.60
2019-03-04T05:19:18.646Z,146.20
2019-03-04T05:21:48.715Z,142.82
2019-03-04T05:24:18.614Z,142.10
2019-03-04T05:26:48.786Z,141.07
2019-03-04T05:29:18.775Z,142.15
2019-03-04T05:31:48.865Z,156.93
2019-03-04T05:34:18.881Z,150.68
2019-03-04T05:36:49.017Z,186.15
2019-03-04T05:39:19.102Z,176.95
2019-03-04T05:41:49.181Z,170.80
2019-03-04T05:44:19.306Z,176.25
2019-03-04T05:46:49.179Z,191.07
2019-03-04T05:49:19.250Z,193.05
2019-03-04T05:51:49.275Z,199.65
2019-03-04T05:54:19.263Z,200.45
2019-03-04T05:56:49.348Z,210.48
2019-03-04T05:59:20.210Z,234.25
2019-03-04T06:01:53.612Z,253.07
2019-03-04T06:04:23.685Z,261.82
2019-03-04T06:07:04.426Z,263.40
2019-03-04T06:09:34.395Z,250.50
2019-03-04T06:12:04.543Z,254.35
2019-03-04T06:14:34.557Z,271.13
2019-03-04T06:17:04.661Z,250.45
2019-03-04T06:19:34.597Z,255.85
2019-03-04T06:22:04.641Z,242.68
2019-03-04T06:24:34.725Z,242.53
2019-03-04T06:27:04.734Z,225.35
2019-03-04T06:29:34.896Z,232.83
2019-03-04T06:32:05.734Z,213.28
2019-03-04T06:34:35.832Z,203.67
2019-03-04T06:37:05.862Z,194.97
2019-03-04T06:39:36.020Z,203.37
2019-03-04T06:42:06.069Z,201.88
2019-03-04T06:44:36.244Z,212.10
2019-03-04T06:47:06.248Z,207.47
2019-03-04T06:49:36.312Z,219.30
2019-03-04T06:52:06.412Z,245.00
2019-03-04T06:54:39.591Z,259.80
2019-03-04T06:57:12.795Z,268.27
2019-03-04T06:59:48.915Z,288.00
2019-03-04T07:02:45.213Z,296.68
2019-03-04T07:05:28.759Z,374.85
2019-03-04T07:07:58.915Z,333.35
2019-03-04T07:10:28.913Z,405.30
2019-03-04T07:12:58.940Z,324.55
2019-03-04T07:15:28.912Z,376.27
2019-03-04T07:17:58.977Z,389.98
2019-03-04T07:20:29.048Z,399.50
2019-03-04T07:22:59.073Z,369.07
2019-03-04T07:25:29.164Z,311.92
2019-03-04T07:27:59.364Z,313.20
2019-03-04T07:30:29.410Z,282.32
2019-03-04T07:32:59.490Z,278.10
2019-03-04T07:35:29.648Z,266.65
2019-03-04T07:38:23.704Z,280.25
2019-03-04T07:40:53.792Z,298.27
2019-03-04T07:43:23.854Z,301.02
2019-03-04T07:45:53.919Z,292.30
2019-03-04T07:48:25.864Z,293.97
2019-03-04T07:50:55.995Z,361.10
2019-03-04T07:53:26.071Z,346.10
2019-03-04T07:55:56.158Z,336.27
2019-03-04T07:58:26.255Z,325.18
2019-03-04T08:00:56.473Z,312.40
2019-03-04T08:03:26.509Z,274.18
2019-03-04T08:05:57.796Z,280.85
2019-03-04T08:08:27.874Z,251.62
2019-03-04T08:11:30.887Z,230.00
2019-03-04T08:14:10.039Z,214.10
2019-03-04T08:16:40.157Z,230.20
2019-03-04T08:19:10.207Z,216.75
2019-03-04T08:21:40.274Z,215.95
2019-03-04T08:24:10.307Z,303.80
2019-03-04T08:26:40.382Z,279.20
2019-03-04T08:29:10.387Z,253.07
2019-03-04T08:31:41.564Z,266.95
2019-03-04T08:34:11.772Z,284.80
2019-03-04T08:36:41.924Z,257.35
2019-03-04T08:39:11.985Z,254.23
2019-03-04T08:41:42.002Z,266.68
2019-03-04T08:44:12.088Z,267.65
2019-03-04T08:46:42.014Z,251.25
2019-03-04T08:49:12.037Z,251.37
2019-03-04T08:51:42.153Z,248.45
2019-03-04T08:54:12.333Z,221.45
2019-03-04T08:56:42.343Z,225.57
2019-03-04T08:59:12.417Z,219.65
2019-03-04T09:01:42.480Z,215.32
2019-03-04T09:04:12.637Z,228.95
2019-03-04T09:06:42.791Z,229.07
2019-03-04T09:09:12.880Z,232.12
2019-03-04T09:11:42.804Z,231.15
2019-03-04T09:14:12.858Z,233.55
2019-03-04T09:16:42.859Z,237.60
2019-03-04T09:19:12.867Z,222.52
2019-03-04T09:21:42.917Z,194.35
2019-03-04T09:24:13.037Z,199.53
2019-03-04T09:26:43.100Z,189.85
2019-03-04T09:29:13.234Z,180.95
2019-03-04T09:31:43.189Z,182.05
2019-03-04T09:34:13.237Z,184.43
2019-03-04T09:36:43.374Z,180.57
2019-03-04T09:39:14.432Z,197.25
2019-03-04T09:41:44.593Z,209.60
2019-03-04T09:44:14.574Z,198.68
2019-03-04T09:46:44.655Z,191.40
2019-03-04T09:49:14.775Z,228.85
2019-03-04T09:51:44.781Z,241.38
2019-03-04T09:54:14.788Z,238.70
2019-03-04T09:56:44.836Z,247.33
2019-03-04T09:59:14.826Z,244.30
2019-03-04T10:01:48.546Z,234.70
2019-03-04T10:04:21.807Z,247.78
2019-03-04T10:07:00.963Z,244.30
2019-03-04T10:09:55.377Z,225.72
2019-03-04T10:12:53.892Z,228.07
2019-03-04T10:15:47.763Z,238.82
2019-03-04T10:18:20.938Z,210.85
2019-03-04T10:21:15.634Z,212.00
2019-03-04T10:23:48.831Z,212.25
2019-03-04T10:26:38.977Z,205.98
2019-03-04T10:29:26.906Z,194.67
2019-03-04T10:34:58.388Z,187.68
2019-03-04T10:37:43.757Z,186.57
2019-03-04T10:40:51.959Z,179.45
2019-03-04T10:43:43.392Z,175.87
2019-03-04T10:46:22.472Z,184.28
2019-03-04T10:48:52.626Z,166.77
2019-03-04T10:51:22.610Z,152.72
2019-03-04T10:53:52.748Z,154.97
2019-03-04T10:56:22.747Z,156.45
2019-03-04T10:58:52.741Z,149.35
2019-03-04T11:01:30.207Z,153.78
2019-03-04T11:03:54.375Z,149.25
2019-03-04T11:06:24.413Z,159.25
2019-03-04T11:08:54.459Z,153.82
2019-03-04T11:11:29.767Z,154.38
2019-03-04T11:13:57.149Z,165.68
2019-03-04T11:16:27.299Z,150.62
2019-03-04T11:18:57.361Z,171.22
2019-03-04T11:21:31.572Z,172.05
2019-03-04T11:24:02.797Z,169.13
2019-03-04T11:26:32.841Z,170.30
2019-03-04T11:29:02.973Z,178.00
2019-03-04T11:31:33.165Z,178.85
2019-03-04T11:34:03.229Z,162.27
2019-03-04T11:36:33.244Z,168.37
2019-03-04T11:39:22.877Z,166.50
2019-03-04T11:41:53.013Z,169.00
2019-03-04T11:44:23.079Z,160.57
2019-03-04T11:46:53.098Z,165.85
2019-03-04T11:49:23.179Z,166.40
2019-03-04T11:51:53.217Z,154.55
2019-03-04T11:54:23.299Z,172.85
2019-03-04T11:56:53.418Z,165.75
2019-03-04T11:59:23.411Z,152.87
2019-03-04T12:01:53.426Z,165.75
2019-03-04T12:04:23.498Z,159.90
2019-03-04T12:06:53.494Z,171.87
2019-03-04T12:09:24.431Z,157.10
2019-03-04T12:11:54.397Z,149.57
2019-03-04T12:14:24.561Z,158.27
2019-03-04T12:16:54.718Z,152.87
2019-03-04T12:19:24.908Z,157.88
2019-03-04T12:21:54.929Z,139.60
2019-03-04T12:24:24.859Z,143.93
2019-03-04T12:26:54.995Z,142.50
2019-03-04T12:29:24.985Z,144.50
2019-03-04T12:31:56.620Z,145.32
2019-03-04T12:34:26.607Z,138.10
2019-03-04T12:36:56.605Z,140.12
2019-03-04T12:39:26.729Z,136.37
2019-03-04T12:41:56.744Z,139.85
2019-03-04T12:44:26.809Z,145.25
2019-03-04T12:46:56.803Z,138.25
2019-03-04T12:49:26.959Z,140.18
2019-03-04T12:51:56.974Z,148.85
2019-03-04T12:54:26.954Z,161.25
2019-03-04T12:56:57.027Z,151.37
2019-03-04T12:59:27.012Z,154.93
2019-03-04T13:01:57.070Z,152.82
2019-03-04T13:04:27.160Z,156.43
2019-03-04T13:06:57.455Z,156.20
2019-03-04T13:09:27.497Z,157.60
2019-03-04T13:11:57.502Z,151.90
2019-03-04T13:14:27.447Z,166.73
2019-03-04T13:16:57.452Z,155.50
2019-03-04T13:19:27.470Z,152.87
2019-03-04T13:21:57.499Z,153.85
2019-03-04T13:24:27.564Z,166.95
2019-03-04T13:26:57.566Z,155.75
2019-03-04T13:29:27.734Z,157.88
2019-03-04T13:31:57.737Z,165.85
2019-03-04T13:34:27.838Z,155.80
2019-03-04T13:36:57.889Z,168.97
2019-03-04T13:39:27.805Z,163.15
2019-03-04T13:41:57.887Z,159.10
2019-03-04T13:44:27.805Z,155.87
2019-03-04T13:46:57.881Z,166.30
2019-03-04T13:49:27.799Z,161.20
2019-03-04T13:51:57.790Z,160.65
2019-03-04T13:54:27.884Z,173.65
2019-03-04T13:56:57.978Z,153.50
2019-03-04T13:59:28.140Z,164.62
2019-03-04T14:01:58.214Z,167.37
2019-03-04T14:04:28.163Z,152.10
2019-03-04T14:06:58.241Z,155.40
2019-03-04T14:09:28.364Z,159.65
2019-03-04T14:11:58.362Z,164.13
2019-03-04T14:14:28.285Z,168.82
2019-03-04T14:16:58.446Z,156.67
2019-03-04T14:19:28.451Z,162.35
2019-03-04T14:21:58.640Z,161.15
2019-03-04T14:24:28.795Z,169.77
2019-03-04T14:26:58.865Z,169.22
2019-03-04T14:29:28.824Z,179.07
2019-03-04T14:31:58.664Z,157.25
2019-03-04T14:34:28.770Z,171.75
2019-03-04T14:36:58.864Z,169.70
2019-03-04T14:39:31.838Z,163.68
2019-03-04T14:42:01.917Z,179.55
2019-03-04T14:44:31.966Z,174.80
2019-03-04T14:47:02.103Z,172.10
2019-03-04T14:49:33.174Z,169.68
2019-03-04T14:52:03.197Z,166.95
2019-03-04T14:54:33.227Z,165.97
2019-03-04T14:57:03.378Z,172.25
2019-03-04T14:59:33.481Z,175.25
2019-03-04T15:02:03.583Z,179.97
2019-03-04T15:04:33.594Z,171.93
2019-03-04T15:07:03.695Z,172.47
2019-03-04T15:09:33.706Z,188.15
2019-03-04T15:12:03.794Z,169.28
2019-03-04T15:14:33.975Z,180.37
2019-03-04T15:17:03.927Z,174.07
2019-03-04T15:19:34.056Z,177.35
2019-03-04T15:22:04.128Z,166.60
2019-03-04T15:24:35.193Z,163.30
2019-03-04T15:27:05.260Z,155.10
2019-03-04T15:29:35.358Z,157.00
2019-03-04T15:32:05.358Z,158.15
2019-03-04T15:34:35.533Z,147.47
2019-03-04T15:37:05.613Z,149.70
2019-03-04T15:39:35.789Z,153.95
2019-03-04T15:42:05.864Z,150.22
2019-03-04T15:44:35.887Z,151.02
2019-03-04T15:47:05.904Z,147.10
2019-03-04T15:49:35.959Z,145.72
2019-03-04T15:52:06.898Z,157.35
2019-03-04T15:54:36.987Z,143.22
2019-03-04T15:57:07.504Z,143.30
2019-03-04T15:59:37.477Z,143.90
2019-03-04T16:02:07.526Z,138.20
2019-03-04T16:04:37.696Z,138.68
2019-03-04T16:07:08.999Z,141.77
2019-03-04T16:09:38.982Z,142.05
2019-03-04T16:12:11.685Z,148.10
2019-03-04T16:14:41.679Z,157.00
2019-03-04T16:17:11.774Z,151.63
2019-03-04T16:19:41.942Z,147.10
2019-03-04T16:22:12.073Z,139.32
2019-03-04T16:24:42.141Z,143.87
2019-03-04T16:27:13.780Z,147.60
2019-03-04T16:29:43.864Z,142.98
2019-03-04T16:32:13.938Z,143.97
2019-03-04T16:34:43.937Z,154.87
2019-03-04T16:37:13.788Z,163.52
2019-03-04T16:39:43.727Z,161.37
2019-03-04T16:42:13.710Z,163.77
2019-03-04T16:44:43.748Z,161.80
2019-03-04T16:47:13.876Z,152.45
2019-03-04T16:49:45.570Z,158.12
2019-03-04T16:52:16.128Z,158.40
2019-03-04T16:54:46.890Z,173.40
2019-03-04T16:57:18.601Z,167.70
2019-03-04T16:59:48.867Z,173.93
2019-03-04T17:02:20.001Z,165.30
2019-03-04T17:04:50.043Z,158.00
2019-03-04T17:07:20.058Z,162.37
2019-03-04T17:09:50.314Z,169.02
2019-03-04T17:12:20.472Z,173.35
2019-03-04T17:14:51.726Z,159.75
2019-03-04T17:17:21.725Z,171.43
2019-03-04T17:19:51.701Z,188.72
2019-03-04T17:22:21.708Z,197.75
2019-03-04T17:24:52.297Z,192.70
2019-03-04T17:27:22.499Z,189.87
2019-03-04T17:29:52.644Z,204.30
2019-03-04T17:32:22.640Z,206.87
2019-03-04T17:34:52.737Z,198.38
2019-03-04T17:37:22.956Z,201.95
2019-03-04T17:39:53.533Z,202.62
2019-03-04T17:42:23.753Z,218.45
2019-03-04T17:44:54.021Z,192.87
2019-03-04T17:47:24.186Z,199.35
2019-03-04T17:49:54.320Z,186.62
2019-03-04T17:52:24.517Z,182.90
2019-03-04T17:54:54.519Z,167.50
2019-03-04T17:57:24.631Z,174.30
2019-03-04T17:59:55.175Z,172.47
2019-03-04T18:02:25.470Z,171.72
2019-03-04T18:04:55.628Z,172.82
2019-03-04T18:07:26.919Z,169.95
2019-03-04T18:09:57.126Z,161.82
2019-03-04T18:12:27.185Z,153.10
2019-03-04T18:14:57.314Z,157.67
2019-03-04T18:17:27.479Z,154.87
2019-03-04T18:19:57.481Z,162.12
2019-03-04T18:22:27.666Z,152.10
2019-03-04T18:24:57.819Z,153.62
2019-03-04T18:27:27.886Z,149.05
2019-03-04T18:30:04.357Z,153.55
2019-03-04T18:32:48.442Z,158.07
2019-03-04T18:35:24.793Z,163.80
2019-03-04T18:37:57.912Z,153.47
2019-03-04T18:40:49.375Z,155.03
2019-03-04T18:43:25.833Z,160.37
2019-03-04T18:46:25.135Z,167.57
2019-03-04T18:48:57.520Z,165.40
2019-03-04T18:51:28.145Z,163.95
2019-03-04T18:54:00.496Z,166.77
2019-03-04T18:56:30.554Z,167.62
2019-03-04T18:59:00.638Z,170.70
2019-03-04T19:01:30.716Z,166.05
2019-03-04T19:04:00.967Z,161.60
2019-03-04T19:06:31.123Z,165.68
2019-03-04T19:09:01.270Z,163.10
2019-03-04T19:11:32.896Z,175.50
2019-03-04T19:14:03.037Z,157.70
2019-03-04T19:16:33.575Z,171.77
2019-03-04T19:19:04.202Z,154.57
2019-03-04T19:21:34.313Z,160.60
2019-03-04T19:24:04.446Z,158.12
2019-03-04T19:26:34.684Z,162.77
2019-03-04T19:29:04.972Z,172.70
2019-03-04T19:31:35.170Z,166.03
2019-03-04T19:34:05.476Z,158.90
2019-03-04T19:36:35.429Z,156.90
2019-03-04T19:39:06.847Z,162.07
2019-03-04T19:41:37.494Z,175.57
2019-03-04T19:44:07.538Z,182.20
2019-03-04T19:46:37.611Z,180.25
2019-03-04T19:49:07.953Z,186.45
2019-03-04T19:51:37.974Z,236.12
2019-03-04T19:54:10.168Z,418.63
2019-03-04T19:56:40.126Z,805.60
2019-03-04T19:59:10.308Z,962.05
2019-03-04T20:01:40.338Z,447.05
2019-03-04T20:04:12.011Z,345.85
2019-03-04T20:06:42.029Z,251.80
2019-03-04T20:09:12.292Z,224.40
2019-03-04T20:12:01.885Z,254.57
2019-03-04T20:14:31.916Z,283.05
2019-03-04T20:17:02.082Z,267.62
2019-03-04T20:19:33.694Z,234.57
2019-03-04T20:22:03.670Z,215.80
2019-03-04T20:24:33.858Z,207.95
2019-03-04T20:27:05.013Z,206.63
2019-03-04T20:29:35.603Z,205.15
2019-03-04T20:32:05.857Z,235.40
2019-03-04T20:34:36.065Z,206.65
2019-03-04T20:37:06.198Z,171.20
2019-03-04T20:39:36.434Z,194.37
2019-03-04T20:42:06.722Z,192.37
2019-03-04T20:44:36.900Z,208.70
2019-03-04T20:47:06.925Z,216.75
2019-03-04T20:49:37.162Z,211.97
2019-03-04T20:52:07.285Z,199.95
2019-03-04T20:54:37.525Z,194.17
2019-03-04T20:57:08.608Z,217.90
2019-03-04T20:59:38.722Z,192.60
2019-03-04T21:02:08.833Z,212.65
2019-03-04T21:04:38.899Z,219.50
2019-03-04T21:07:09.084Z,226.55
2019-03-04T21:09:39.387Z,228.92
2019-03-04T21:12:09.541Z,228.58
2019-03-04T21:14:39.804Z,210.57
2019-03-04T21:17:09.785Z,223.03
2019-03-04T21:19:40.072Z,230.90
2019-03-04T21:22:11.115Z,218.97
2019-03-04T21:24:41.199Z,211.43
2019-03-04T21:27:12.449Z,218.10
2019-03-04T21:29:48.727Z,217.50
2019-03-04T21:32:29.084Z,231.85
2019-03-04T21:35:21.685Z,253.47
2019-03-04T21:37:52.247Z,231.93
2019-03-04T21:40:25.559Z,221.15
2019-03-04T21:42:59.856Z,237.40
2019-03-04T21:45:51.288Z,210.30
2019-03-04T21:48:27.125Z,201.30
2019-03-04T21:51:00.405Z,210.23
2019-03-04T21:53:37.258Z,207.18
2019-03-04T21:56:28.935Z,203.73
2019-03-04T21:58:59.146Z,208.13
2019-03-04T22:01:50.732Z,217.65
2019-03-04T22:04:21.662Z,224.37
2019-03-04T22:06:51.750Z,218.22
2019-03-04T22:09:21.999Z,232.50
2019-03-04T22:11:52.140Z,244.07
2019-03-04T22:14:22.353Z,248.10
2019-03-04T22:16:52.547Z,228.50
2019-03-04T22:19:23.625Z,226.82
2019-03-04T22:21:53.700Z,236.20
2019-03-04T22:24:23.802Z,230.52
2019-03-04T22:26:57.120Z,247.85
2019-03-04T22:29:27.113Z,223.82
2019-03-04T22:31:58.383Z,229.50
2019-03-04T22:34:28.378Z,230.27
2019-03-04T22:36:58.454Z,224.50
2019-03-04T22:39:28.499Z,210.08
2019-03-04T22:41:58.697Z,224.75
2019-03-04T22:44:28.812Z,206.80
2019-03-04T22:46:58.992Z,195.77
2019-03-04T22:49:29.085Z,188.45
2019-03-04T22:51:59.251Z,192.62
2019-03-04T22:54:29.248Z,201.55
2019-03-04T22:56:59.406Z,203.73
2019-03-04T22:59:29.537Z,197.68
2019-03-04T23:01:59.532Z,186.70
2019-03-04T23:04:29.450Z,190.12
2019-03-04T23:07:02.528Z,180.03
2019-03-04T23:09:51.072Z,173.68
2019-03-04T23:12:33.485Z,179.05
2019-03-04T23:15:05.423Z,300.77
2019-03-04T23:17:35.582Z,446.22
2019-03-04T23:20:07.091Z,386.02
2019-03-04T23:22:37.167Z,423.52
2019-03-04T23:25:10.371Z,423.13
2019-03-04T23:27:40.429Z,281.63
2019-03-04T23:30:13.588Z,390.57
2019-03-04T23:32:43.739Z,569.13
2019-03-04T23:35:13.903Z,489.65
2019-03-04T23:37:43.882Z,405.03
2019-03-04T23:40:15.189Z,511.58
2019-03-04T23:42:45.269Z,544.10
2019-03-04T23:45:15.351Z,318.85
2019-03-04T23:47:45.438Z,334.30
2019-03-04T23:50:25.047Z,336.60
2019-03-04T23:52:55.207Z,292.98
2019-03-04T23:55:25.356Z,404.07
2019-03-04T23:57:55.352Z,258.20
